createdAt,value
2017-12-31T00:00:46.745Z,0.00
2017-12-31T00:01:46.687Z,0.00
2017-12-31T00:02:46.626Z,0.00
2017-12-31T00:03:46.568Z,0.00
2017-12-31T00:04:46.506Z,0.00
2017-12-31T00:05:46.448Z,0.00
2017-12-31T00:06:46.388Z,0.00
2017-12-31T00:07:46.328Z,0.00
2017-12-31T00:08:46.270Z,0.00
2017-12-31T00:09:46.211Z,4.00
2017-12-31T00:10:46.153Z,4.00
2017-12-31T00:11:46.094Z,4.00
2017-12-31T00:12:46.032Z,4.00
2017-12-31T00:13:45.972Z,4.00
2017-12-31T00:14:45.916Z,4.00
2017-12-31T00:15:45.853Z,4.00
2017-12-31T00:16:45.795Z,4.00
2017-12-31T00:17:45.735Z,4.00
2017-12-31T00:18:45.674Z,4.00
2017-12-31T00:19:45.615Z,4.00
2017-12-31T00:20:45.558Z,4.00
2017-12-31T00:21:45.497Z,4.00
2017-12-31T00:22:45.437Z,0.00
2017-12-31T00:23:45.377Z,4.00
2017-12-31T00:24:45.320Z,4.00
2017-12-31T00:25:45.259Z,4.00
2017-12-31T00:26:45.200Z,4.00
2017-12-31T00:27:45.139Z,4.00
2017-12-31T00:28:45.081Z,4.00
2017-12-31T00:29:45.025Z,4.00
2017-12-31T00:30:44.964Z,0.00
2017-12-31T00:31:44.905Z,0.00
2017-12-31T00:32:44.843Z,0.00
2017-12-31T00:33:44.787Z,0.00
2017-12-31T00:34:44.724Z,0.00
2017-12-31T00:35:44.662Z,4.00
2017-12-31T00:36:44.608Z,4.00
2017-12-31T00:37:44.545Z,4.00
2017-12-31T00:38:44.487Z,0.00
2017-12-31T00:39:44.427Z,4.00
2017-12-31T00:40:44.369Z,4.00
2017-12-31T00:41:44.308Z,0.00
2017-12-31T00:42:44.251Z,4.00
2017-12-31T00:43:44.191Z,0.00
2017-12-31T00:44:44.131Z,4.00
2017-12-31T00:45:44.071Z,0.00
2017-12-31T00:46:44.016Z,4.00
2017-12-31T00:47:43.952Z,0.00
2017-12-31T00:48:43.895Z,4.00
2017-12-31T00:49:43.835Z,4.00
2017-12-31T00:50:43.776Z,4.00
2017-12-31T00:51:43.714Z,4.00
2017-12-31T00:52:43.657Z,4.00
2017-12-31T00:53:43.597Z,4.00
2017-12-31T00:54:43.544Z,4.00
2017-12-31T00:55:43.481Z,0.00
2017-12-31T00:56:43.420Z,4.00
2017-12-31T00:57:43.360Z,4.00
2017-12-31T00:58:43.300Z,0.00
2017-12-31T00:59:43.241Z,4.00
2017-12-31T01:00:43.181Z,4.00
2017-12-31T01:01:43.121Z,4.00
2017-12-31T01:02:43.061Z,0.00
2017-12-31T01:03:43.004Z,0.00
2017-12-31T01:04:42.946Z,0.00
2017-12-31T01:05:42.885Z,4.00
2017-12-31T01:06:42.826Z,0.00
2017-12-31T01:07:42.768Z,0.00
2017-12-31T01:08:42.707Z,4.00
2017-12-31T01:09:42.648Z,4.00
2017-12-31T01:10:42.589Z,4.00
2017-12-31T01:11:42.534Z,4.00
2017-12-31T01:12:42.468Z,4.00
2017-12-31T01:13:42.409Z,4.00
2017-12-31T01:14:42.350Z,4.00
2017-12-31T01:15:42.290Z,0.00
2017-12-31T01:16:42.231Z,4.00
2017-12-31T01:17:42.171Z,4.00
2017-12-31T01:18:42.115Z,0.00
2017-12-31T01:19:42.056Z,0.00
2017-12-31T01:20:41.994Z,4.00
2017-12-31T01:21:41.932Z,4.00
2017-12-31T01:22:41.875Z,4.00
2017-12-31T01:23:41.816Z,4.00
2017-12-31T01:24:41.750Z,4.00
2017-12-31T01:25:41.698Z,4.00
2017-12-31T01:26:41.640Z,0.00
2017-12-31T01:27:41.582Z,4.00
2017-12-31T01:28:41.522Z,4.00
2017-12-31T01:29:41.461Z,4.00
2017-12-31T01:30:41.399Z,0.00
2017-12-31T01:31:41.341Z,4.00
2017-12-31T01:32:41.288Z,4.00
2017-12-31T01:33:41.227Z,0.00
2017-12-31T01:34:41.163Z,4.00
2017-12-31T01:35:41.106Z,4.00
2017-12-31T01:36:41.044Z,4.00
2017-12-31T01:37:40.987Z,4.00
2017-12-31T01:38:40.925Z,0.00
2017-12-31T01:39:40.869Z,0.00
2017-12-31T01:40:40.809Z,4.00
2017-12-31T01:41:40.750Z,4.00
2017-12-31T01:42:40.700Z,4.00
2017-12-31T01:43:40.631Z,4.00
2017-12-31T01:44:40.570Z,4.00
2017-12-31T01:45:40.511Z,0.00
2017-12-31T01:46:40.454Z,4.00
2017-12-31T01:47:40.394Z,4.00
2017-12-31T01:48:40.342Z,0.00
2017-12-31T01:49:40.279Z,4.00
2017-12-31T01:50:40.209Z,4.00
2017-12-31T01:51:40.157Z,0.00
2017-12-31T01:52:40.096Z,0.00
2017-12-31T01:53:40.040Z,0.00
2017-12-31T01:54:39.979Z,0.00
2017-12-31T01:55:39.922Z,0.00
2017-12-31T01:56:39.862Z,0.00
2017-12-31T01:57:39.803Z,0.00
2017-12-31T01:58:39.741Z,0.00
2017-12-31T01:59:39.682Z,0.00
2017-12-31T02:00:39.622Z,0.00
2017-12-31T02:01:39.564Z,0.00
2017-12-31T02:02:39.505Z,0.00
2017-12-31T02:03:39.449Z,0.00
2017-12-31T02:04:39.386Z,0.00
2017-12-31T02:05:39.326Z,0.00
2017-12-31T02:06:39.269Z,0.00
2017-12-31T02:07:39.209Z,0.00
2017-12-31T02:08:39.148Z,0.00
2017-12-31T02:09:39.089Z,0.00
2017-12-31T02:10:39.030Z,0.00
2017-12-31T02:11:38.972Z,0.00
2017-12-31T02:12:38.912Z,0.00
2017-12-31T02:13:38.853Z,0.00
2017-12-31T02:14:38.801Z,0.00
2017-12-31T02:15:38.732Z,0.00
2017-12-31T02:16:38.674Z,0.00
2017-12-31T02:17:38.614Z,0.00
2017-12-31T02:18:38.562Z,0.00
2017-12-31T02:19:38.497Z,0.00
2017-12-31T02:20:38.442Z,0.00
2017-12-31T02:21:38.378Z,0.00
2017-12-31T02:22:38.318Z,0.00
2017-12-31T02:23:38.259Z,0.00
2017-12-31T02:24:38.199Z,0.00
2017-12-31T02:25:38.141Z,0.00
2017-12-31T02:26:38.092Z,0.00
2017-12-31T02:27:38.023Z,0.00
2017-12-31T02:28:37.963Z,0.00
2017-12-31T02:29:37.903Z,4.00
2017-12-31T02:30:37.846Z,0.00
2017-12-31T02:31:37.783Z,0.00
2017-12-31T02:32:37.725Z,0.00
2017-12-31T02:33:37.666Z,4.00
2017-12-31T02:34:37.608Z,4.00
2017-12-31T02:35:37.556Z,0.00
2017-12-31T02:36:37.490Z,4.00
2017-12-31T02:37:37.435Z,0.00
2017-12-31T02:38:37.369Z,0.00
2017-12-31T02:39:37.310Z,0.00
2017-12-31T02:40:37.251Z,0.00
2017-12-31T02:41:37.192Z,0.00
2017-12-31T02:42:37.133Z,0.00
2017-12-31T02:43:37.074Z,0.00
2017-12-31T02:44:37.014Z,4.00
2017-12-31T02:45:36.954Z,0.00
2017-12-31T02:46:36.899Z,0.00
2017-12-31T02:47:36.837Z,0.00
2017-12-31T02:48:36.777Z,0.00
2017-12-31T02:49:36.720Z,0.00
2017-12-31T02:50:36.659Z,4.00
2017-12-31T02:51:36.599Z,4.00
2017-12-31T02:52:36.541Z,4.00
2017-12-31T02:53:36.482Z,0.00
2017-12-31T02:54:36.427Z,0.00
2017-12-31T02:55:36.363Z,4.00
2017-12-31T02:56:36.303Z,4.00
2017-12-31T02:57:36.246Z,0.00
2017-12-31T02:58:36.189Z,0.00
2017-12-31T02:59:36.126Z,0.00
2017-12-31T03:00:36.065Z,0.00
2017-12-31T03:01:36.006Z,0.00
2017-12-31T03:02:35.953Z,0.00
2017-12-31T03:03:35.892Z,0.00
2017-12-31T03:04:35.831Z,0.00
2017-12-31T03:05:35.774Z,0.00
2017-12-31T03:06:35.714Z,4.00
2017-12-31T03:07:35.654Z,0.00
2017-12-31T03:08:35.592Z,0.00
2017-12-31T03:09:35.534Z,0.00
2017-12-31T03:10:35.477Z,0.00
2017-12-31T03:11:35.415Z,0.00
2017-12-31T03:12:35.361Z,0.00
2017-12-31T03:13:35.307Z,0.00
2017-12-31T03:14:35.239Z,0.00
2017-12-31T03:15:35.181Z,0.00
2017-12-31T03:16:35.120Z,0.00
2017-12-31T03:17:35.063Z,0.00
2017-12-31T03:18:35.002Z,0.00
2017-12-31T03:19:34.944Z,0.00
2017-12-31T03:20:34.884Z,0.00
2017-12-31T03:21:34.825Z,0.00
2017-12-31T03:22:34.779Z,0.00
2017-12-31T03:23:34.717Z,0.00
2017-12-31T03:24:34.645Z,0.00
2017-12-31T03:25:34.588Z,4.00
2017-12-31T03:26:34.530Z,4.00
2017-12-31T03:27:34.469Z,0.00
2017-12-31T03:28:34.411Z,0.00
2017-12-31T03:29:34.351Z,0.00
2017-12-31T03:30:34.293Z,0.00
2017-12-31T03:31:34.233Z,0.00
2017-12-31T03:32:34.173Z,0.00
2017-12-31T03:33:34.116Z,0.00
2017-12-31T03:34:34.056Z,4.00
2017-12-31T03:35:33.996Z,0.00
2017-12-31T03:36:33.936Z,4.00
2017-12-31T03:37:33.876Z,4.00
2017-12-31T03:38:33.817Z,4.00
2017-12-31T03:39:33.758Z,4.00
2017-12-31T03:40:33.707Z,4.00
2017-12-31T03:41:33.639Z,4.00
2017-12-31T03:42:33.582Z,4.00
2017-12-31T03:43:33.522Z,4.00
2017-12-31T03:44:33.463Z,4.00
2017-12-31T03:45:33.453Z,4.00
2017-12-31T03:46:33.346Z,4.00
2017-12-31T03:47:33.287Z,0.00
2017-12-31T03:48:33.225Z,4.00
2017-12-31T03:49:33.168Z,4.00
2017-12-31T03:50:33.109Z,4.00
2017-12-31T03:51:33.053Z,4.00
2017-12-31T03:52:32.989Z,4.00
2017-12-31T03:53:32.929Z,0.00
2017-12-31T03:54:32.908Z,4.00
2017-12-31T03:55:32.814Z,4.00
2017-12-31T03:56:32.750Z,4.00
2017-12-31T03:57:32.693Z,4.00
2017-12-31T03:58:32.634Z,4.00
2017-12-31T03:59:32.580Z,4.00
2017-12-31T04:00:32.514Z,0.00
2017-12-31T04:01:32.456Z,4.00
2017-12-31T04:02:32.402Z,4.00
2017-12-31T04:03:32.341Z,4.00
2017-12-31T04:04:32.277Z,4.00
2017-12-31T04:05:32.220Z,4.00
2017-12-31T04:06:32.159Z,4.00
2017-12-31T04:07:32.099Z,4.00
2017-12-31T04:08:32.041Z,4.00
2017-12-31T04:09:31.986Z,4.00
2017-12-31T04:10:31.922Z,4.00
2017-12-31T04:11:31.863Z,4.00
2017-12-31T04:12:31.803Z,4.00
2017-12-31T04:13:31.745Z,4.00
2017-12-31T04:14:31.686Z,4.00
2017-12-31T04:15:31.627Z,4.00
2017-12-31T04:16:31.565Z,4.00
2017-12-31T04:17:31.510Z,4.00
2017-12-31T04:18:31.450Z,0.00
2017-12-31T04:19:31.390Z,4.00
2017-12-31T04:20:31.332Z,4.00
2017-12-31T04:21:31.270Z,4.00
2017-12-31T04:22:31.212Z,4.00
2017-12-31T04:23:31.152Z,4.00
2017-12-31T04:24:31.093Z,4.00
2017-12-31T04:25:31.033Z,4.00
2017-12-31T04:26:30.972Z,4.00
2017-12-31T04:27:30.918Z,4.00
2017-12-31T04:28:30.853Z,4.00
2017-12-31T04:29:30.796Z,4.00
2017-12-31T04:30:30.737Z,4.00
2017-12-31T04:31:30.678Z,4.00
2017-12-31T04:32:30.616Z,4.00
2017-12-31T04:33:30.559Z,4.00
2017-12-31T04:34:30.500Z,4.00
2017-12-31T04:35:30.439Z,4.00
2017-12-31T04:36:30.380Z,4.00
2017-12-31T04:37:30.321Z,4.00
2017-12-31T04:38:30.262Z,4.00
2017-12-31T04:39:30.206Z,4.00
2017-12-31T04:40:30.142Z,0.00
2017-12-31T04:41:30.086Z,4.00
2017-12-31T04:42:30.024Z,4.00
2017-12-31T04:43:29.964Z,4.00
2017-12-31T04:44:29.903Z,4.00
2017-12-31T04:45:29.844Z,4.00
2017-12-31T04:46:29.787Z,4.00
2017-12-31T04:47:29.728Z,4.00
2017-12-31T04:48:29.666Z,4.00
2017-12-31T04:49:29.651Z,4.00
2017-12-31T04:50:29.547Z,4.00
2017-12-31T04:51:29.489Z,4.00
2017-12-31T04:52:29.430Z,4.00
2017-12-31T04:53:29.369Z,4.00
2017-12-31T04:54:29.310Z,4.00
2017-12-31T04:55:29.250Z,4.00
2017-12-31T04:56:29.193Z,4.00
2017-12-31T04:57:29.132Z,4.00
2017-12-31T04:58:29.073Z,4.00
2017-12-31T04:59:29.015Z,4.00
2017-12-31T05:00:28.954Z,4.00
2017-12-31T05:01:28.895Z,4.00
2017-12-31T05:02:28.835Z,4.00
2017-12-31T05:03:28.773Z,4.00
2017-12-31T05:04:28.715Z,4.00
2017-12-31T05:05:28.655Z,4.00
2017-12-31T05:06:28.599Z,4.00
2017-12-31T05:07:28.536Z,4.00
2017-12-31T05:08:28.475Z,4.00
2017-12-31T05:09:28.416Z,4.00
2017-12-31T05:10:28.358Z,4.00
2017-12-31T05:11:28.299Z,4.00
2017-12-31T05:12:28.238Z,4.00
2017-12-31T05:13:28.178Z,4.00
2017-12-31T05:14:28.120Z,4.00
2017-12-31T05:15:28.060Z,4.00
2017-12-31T05:16:28.005Z,4.00
2017-12-31T05:17:27.941Z,4.00
2017-12-31T05:18:27.880Z,4.00
2017-12-31T05:19:27.823Z,4.00
2017-12-31T05:20:27.762Z,4.00
2017-12-31T05:21:27.703Z,4.00
2017-12-31T05:22:27.641Z,4.00
2017-12-31T05:23:27.583Z,4.00
2017-12-31T05:24:27.529Z,4.00
2017-12-31T05:25:27.462Z,4.00
2017-12-31T05:26:27.407Z,4.00
2017-12-31T05:27:27.342Z,4.00
2017-12-31T05:28:27.284Z,4.00
2017-12-31T05:29:27.222Z,4.00
2017-12-31T05:30:27.161Z,4.00
2017-12-31T05:31:27.105Z,4.00
2017-12-31T05:32:27.042Z,4.00
2017-12-31T05:33:26.991Z,4.00
2017-12-31T05:34:26.926Z,4.00
2017-12-31T05:35:26.866Z,4.00
2017-12-31T05:36:26.804Z,4.00
2017-12-31T05:37:26.748Z,4.00
2017-12-31T05:38:26.687Z,4.00
2017-12-31T05:39:26.635Z,4.00
2017-12-31T05:40:26.570Z,4.00
2017-12-31T05:41:26.507Z,4.00
2017-12-31T05:42:26.450Z,4.00
2017-12-31T05:43:26.390Z,4.00
2017-12-31T05:44:26.332Z,4.00
2017-12-31T05:45:26.267Z,4.00
2017-12-31T05:46:26.207Z,4.00
2017-12-31T05:47:26.149Z,4.00
2017-12-31T05:48:26.087Z,4.00
2017-12-31T05:49:26.029Z,4.00
2017-12-31T05:50:25.968Z,4.00
2017-12-31T05:51:25.909Z,4.00
2017-12-31T05:52:25.848Z,4.00
2017-12-31T05:53:25.787Z,4.00
2017-12-31T05:54:25.729Z,4.00
2017-12-31T05:55:25.672Z,4.00
2017-12-31T05:56:25.609Z,4.00
2017-12-31T05:57:25.558Z,4.00
2017-12-31T05:58:25.486Z,4.00
2017-12-31T05:59:25.435Z,4.00
2017-12-31T06:00:25.368Z,4.00
2017-12-31T06:01:25.309Z,4.00
2017-12-31T06:02:25.249Z,4.00
2017-12-31T06:03:25.190Z,4.00
2017-12-31T06:04:25.131Z,4.00
2017-12-31T06:05:25.068Z,4.00
2017-12-31T06:06:25.009Z,4.00
2017-12-31T06:07:24.951Z,4.00
2017-12-31T06:08:24.888Z,4.00
2017-12-31T06:09:24.828Z,4.00
2017-12-31T06:10:24.771Z,4.00
2017-12-31T06:11:24.708Z,4.00
2017-12-31T06:12:24.648Z,4.00
2017-12-31T06:13:24.588Z,4.00
2017-12-31T06:14:24.529Z,4.00
2017-12-31T06:15:24.469Z,4.00
2017-12-31T06:16:24.408Z,4.00
2017-12-31T06:17:24.354Z,4.00
2017-12-31T06:18:24.286Z,4.00
2017-12-31T06:19:24.227Z,4.00
2017-12-31T06:20:24.172Z,4.00
2017-12-31T06:21:24.104Z,4.00
2017-12-31T06:22:24.057Z,4.00
2017-12-31T06:23:23.988Z,4.00
2017-12-31T06:24:23.925Z,0.00
2017-12-31T06:25:23.873Z,4.00
2017-12-31T06:26:23.808Z,0.00
2017-12-31T06:27:23.746Z,0.00
2017-12-31T06:28:23.688Z,0.00
2017-12-31T06:29:23.628Z,0.00
2017-12-31T06:30:23.566Z,0.00
2017-12-31T06:31:23.507Z,0.00
2017-12-31T06:32:23.446Z,0.00
2017-12-31T06:33:23.393Z,0.00
2017-12-31T06:34:23.324Z,0.00
2017-12-31T06:35:23.266Z,0.00
2017-12-31T06:36:23.204Z,0.00
2017-12-31T06:37:23.146Z,4.00
2017-12-31T06:38:23.085Z,4.00
2017-12-31T06:39:23.025Z,4.00
2017-12-31T06:40:22.963Z,4.00
2017-12-31T06:41:22.902Z,4.00
2017-12-31T06:42:22.845Z,4.00
2017-12-31T06:43:22.785Z,4.00
2017-12-31T06:44:22.722Z,4.00
2017-12-31T06:45:22.663Z,4.00
2017-12-31T06:46:22.602Z,8.00
2017-12-31T06:47:22.547Z,4.00
2017-12-31T06:48:22.485Z,8.00
2017-12-31T06:49:22.423Z,8.00
2017-12-31T06:50:22.361Z,8.00
2017-12-31T06:51:22.325Z,12.00
2017-12-31T06:52:22.264Z,12.00
2017-12-31T06:53:22.191Z,16.00
2017-12-31T06:54:22.140Z,16.00
2017-12-31T06:55:22.068Z,16.00
2017-12-31T06:56:22.048Z,24.00
2017-12-31T06:57:21.950Z,24.00
2017-12-31T06:58:21.881Z,28.00
2017-12-31T06:59:21.823Z,28.00
2017-12-31T07:00:21.764Z,32.00
2017-12-31T07:01:21.698Z,36.00
2017-12-31T07:02:21.662Z,40.00
2017-12-31T07:03:21.582Z,44.00
2017-12-31T07:04:21.523Z,48.00
2017-12-31T07:05:21.463Z,52.00
2017-12-31T07:06:21.408Z,56.00
2017-12-31T07:07:21.343Z,52.00
2017-12-31T07:08:21.296Z,52.00
2017-12-31T07:09:21.225Z,60.00
2017-12-31T07:10:21.176Z,64.00
2017-12-31T07:11:21.116Z,72.00
2017-12-31T07:12:21.044Z,80.00
2017-12-31T07:13:20.991Z,88.00
2017-12-31T07:14:20.925Z,96.00
2017-12-31T07:15:20.866Z,120.00
2017-12-31T07:16:20.807Z,140.00
2017-12-31T07:17:20.745Z,156.00
2017-12-31T07:18:20.681Z,176.00
2017-12-31T07:19:20.622Z,204.00
2017-12-31T07:20:20.564Z,220.00
2017-12-31T07:21:20.510Z,224.00
2017-12-31T07:22:20.442Z,244.00
2017-12-31T07:23:20.387Z,268.00
2017-12-31T07:24:20.335Z,296.00
2017-12-31T07:25:20.263Z,308.00
2017-12-31T07:26:20.203Z,320.00
2017-12-31T07:27:20.158Z,332.00
2017-12-31T07:28:20.094Z,360.00
2017-12-31T07:29:20.041Z,380.00
2017-12-31T07:30:19.984Z,400.00
2017-12-31T07:31:19.907Z,424.00
2017-12-31T07:32:19.861Z,460.00
2017-12-31T07:33:19.785Z,500.00
2017-12-31T07:34:19.725Z,512.00
2017-12-31T07:35:19.667Z,496.00
2017-12-31T07:36:19.605Z,492.00
2017-12-31T07:37:19.544Z,512.00
2017-12-31T07:38:19.489Z,548.00
2017-12-31T07:39:19.428Z,564.00
2017-12-31T07:40:19.369Z,544.00
2017-12-31T07:41:19.318Z,540.00
2017-12-31T07:42:19.261Z,556.00
2017-12-31T07:43:19.190Z,592.00
2017-12-31T07:44:19.130Z,652.00
2017-12-31T07:45:19.068Z,684.00
2017-12-31T07:46:19.007Z,732.00
2017-12-31T07:47:18.947Z,696.00
2017-12-31T07:48:18.891Z,724.00
2017-12-31T07:49:18.829Z,728.00
2017-12-31T07:50:18.780Z,772.00
2017-12-31T07:51:18.712Z,812.00
2017-12-31T07:52:18.653Z,844.00
2017-12-31T07:53:18.593Z,876.00
2017-12-31T07:54:18.542Z,880.00
2017-12-31T07:55:18.469Z,900.00
2017-12-31T07:56:18.411Z,952.00
2017-12-31T07:57:18.348Z,988.00
2017-12-31T07:58:18.296Z,1072.00
2017-12-31T07:59:18.233Z,1076.00
2017-12-31T08:00:18.174Z,1124.00
2017-12-31T08:01:18.113Z,1244.00
2017-12-31T08:02:18.054Z,1328.00
2017-12-31T08:03:17.996Z,1384.00
2017-12-31T08:04:17.935Z,1408.00
2017-12-31T08:05:17.873Z,1456.00
2017-12-31T08:06:17.815Z,1520.00
2017-12-31T08:07:17.755Z,1560.00
2017-12-31T08:08:17.696Z,1580.00
2017-12-31T08:09:17.641Z,1604.00
2017-12-31T08:10:17.579Z,1600.00
2017-12-31T08:11:17.517Z,1648.00
2017-12-31T08:12:17.460Z,1696.00
2017-12-31T08:13:17.453Z,1724.00
2017-12-31T08:14:17.344Z,1808.00
2017-12-31T08:15:17.286Z,1896.00
2017-12-31T08:16:17.220Z,1976.00
2017-12-31T08:17:17.161Z,2004.00
2017-12-31T08:18:17.104Z,2060.00
2017-12-31T08:19:17.044Z,2044.00
2017-12-31T08:20:16.983Z,2056.00
2017-12-31T08:21:16.926Z,2140.00
2017-12-31T08:22:16.871Z,2168.00
2017-12-31T08:23:16.809Z,2256.00
2017-12-31T08:24:16.746Z,2356.00
2017-12-31T08:25:16.735Z,2444.00
2017-12-31T08:26:16.628Z,2536.00
2017-12-31T08:27:16.564Z,2684.00
2017-12-31T08:28:16.514Z,2860.00
2017-12-31T08:29:16.451Z,2952.00
2017-12-31T08:30:16.392Z,2932.00
2017-12-31T08:31:16.336Z,2788.00
2017-12-31T08:32:16.274Z,2608.00
2017-12-31T08:33:16.233Z,2488.00
2017-12-31T08:34:16.160Z,2464.00
2017-12-31T08:35:16.101Z,2592.00
2017-12-31T08:36:16.038Z,2676.00
2017-12-31T08:37:15.980Z,2712.00
2017-12-31T08:38:15.923Z,3004.00
2017-12-31T08:39:15.863Z,3432.00
2017-12-31T08:40:15.828Z,3044.00
2017-12-31T08:41:15.757Z,2600.00
2017-12-31T08:42:15.693Z,2544.00
2017-12-31T08:43:15.626Z,2680.00
2017-12-31T08:44:15.569Z,2832.00
2017-12-31T08:45:15.523Z,2924.00
2017-12-31T08:46:15.457Z,3296.00
2017-12-31T08:47:15.396Z,3376.00
2017-12-31T08:48:15.348Z,3044.00
2017-12-31T08:49:15.276Z,2904.00
2017-12-31T08:50:15.215Z,2936.00
2017-12-31T08:51:15.161Z,3036.00
2017-12-31T08:52:15.099Z,3204.00
2017-12-31T08:53:15.041Z,3472.00
2017-12-31T08:54:14.990Z,3780.00
2017-12-31T08:55:14.926Z,3812.00
2017-12-31T08:56:14.866Z,4116.00
2017-12-31T08:57:14.809Z,4236.00
2017-12-31T08:58:14.789Z,4264.00
2017-12-31T08:59:14.695Z,3936.00
2017-12-31T09:00:14.643Z,4044.00
2017-12-31T09:01:14.664Z,3996.00
2017-12-31T09:02:14.514Z,3552.00
2017-12-31T09:03:14.470Z,3412.00
2017-12-31T09:04:14.396Z,3416.00
2017-12-31T09:05:14.385Z,3544.00
2017-12-31T09:06:14.284Z,3772.00
2017-12-31T09:07:14.225Z,3924.00
2017-12-31T09:08:14.168Z,4140.00
2017-12-31T09:09:14.106Z,4104.00
2017-12-31T09:10:14.043Z,4140.00
2017-12-31T09:11:14.001Z,3916.00
2017-12-31T09:12:13.936Z,4068.00
2017-12-31T09:13:13.878Z,4132.00
2017-12-31T09:14:13.822Z,4228.00
2017-12-31T09:15:13.764Z,4124.00
2017-12-31T09:16:13.702Z,4236.00
2017-12-31T09:17:13.646Z,4544.00
2017-12-31T09:18:13.588Z,4552.00
2017-12-31T09:19:13.532Z,4584.00
2017-12-31T09:20:13.473Z,4520.00
2017-12-31T09:21:13.425Z,4672.00
2017-12-31T09:22:13.359Z,5140.00
2017-12-31T09:23:13.300Z,5464.00
2017-12-31T09:24:13.244Z,5116.00
2017-12-31T09:25:13.186Z,4436.00
2017-12-31T09:26:13.127Z,4040.00
2017-12-31T09:27:13.071Z,4408.00
2017-12-31T09:28:13.012Z,4720.00
2017-12-31T09:29:12.956Z,5028.00
2017-12-31T09:30:12.900Z,5220.00
2017-12-31T09:31:12.842Z,5136.00
2017-12-31T09:32:12.783Z,4400.00
2017-12-31T09:33:12.729Z,3692.00
2017-12-31T09:34:12.669Z,3664.00
2017-12-31T09:35:12.611Z,4028.00
2017-12-31T09:36:12.554Z,4540.00
2017-12-31T09:37:12.498Z,4972.00
2017-12-31T09:38:12.440Z,4828.00
2017-12-31T09:39:12.382Z,4712.00
2017-12-31T09:40:12.329Z,4884.00
2017-12-31T09:41:12.271Z,4528.00
2017-12-31T09:42:12.211Z,3952.00
2017-12-31T09:43:12.155Z,3712.00
2017-12-31T09:44:12.095Z,3460.00
2017-12-31T09:45:12.042Z,3432.00
2017-12-31T09:46:11.984Z,3472.00
2017-12-31T09:47:11.925Z,3144.00
2017-12-31T09:48:11.868Z,2932.00
2017-12-31T09:49:11.812Z,2856.00
2017-12-31T09:50:11.755Z,2756.00
2017-12-31T09:51:11.696Z,2592.00
2017-12-31T09:52:11.639Z,2572.00
2017-12-31T09:53:11.587Z,2596.00
2017-12-31T09:54:11.522Z,2548.00
2017-12-31T09:55:11.470Z,2528.00
2017-12-31T09:56:11.414Z,2484.00
2017-12-31T09:57:11.355Z,2456.00
2017-12-31T09:58:11.294Z,2460.00
2017-12-31T09:59:11.237Z,2496.00
2017-12-31T10:00:11.179Z,2484.00
2017-12-31T10:01:11.127Z,2440.00
2017-12-31T10:02:11.063Z,2424.00
2017-12-31T10:03:11.006Z,2420.00
2017-12-31T10:04:10.953Z,2424.00
2017-12-31T10:05:10.894Z,2416.00
2017-12-31T10:06:10.833Z,2376.00
2017-12-31T10:07:10.778Z,2372.00
2017-12-31T10:08:10.720Z,2380.00
2017-12-31T10:09:10.662Z,2388.00
2017-12-31T10:10:10.604Z,2388.00
2017-12-31T10:11:10.544Z,2420.00
2017-12-31T10:12:10.489Z,2424.00
2017-12-31T10:13:10.430Z,2408.00
2017-12-31T10:14:10.376Z,2424.00
2017-12-31T10:15:10.317Z,2440.00
2017-12-31T10:16:10.256Z,2424.00
2017-12-31T10:17:10.200Z,2392.00
2017-12-31T10:18:10.141Z,2356.00
2017-12-31T10:19:10.083Z,2340.00
2017-12-31T10:20:10.026Z,2336.00
2017-12-31T10:21:09.967Z,2336.00
2017-12-31T10:22:09.910Z,2336.00
2017-12-31T10:23:09.852Z,2332.00
2017-12-31T10:24:09.796Z,2324.00
2017-12-31T10:25:09.739Z,2320.00
2017-12-31T10:26:09.678Z,2320.00
2017-12-31T10:27:09.621Z,2320.00
2017-12-31T10:28:09.573Z,2316.00
2017-12-31T10:29:09.506Z,2320.00
2017-12-31T10:30:09.445Z,2320.00
2017-12-31T10:31:09.390Z,2320.00
2017-12-31T10:32:09.333Z,2320.00
2017-12-31T10:33:09.276Z,2328.00
2017-12-31T10:34:09.215Z,2336.00
2017-12-31T10:35:09.157Z,2340.00
2017-12-31T10:36:09.101Z,2336.00
2017-12-31T10:37:09.048Z,2336.00
2017-12-31T10:38:08.983Z,2340.00
2017-12-31T10:39:08.928Z,2340.00
2017-12-31T10:40:08.872Z,2336.00
2017-12-31T10:41:08.811Z,2332.00
2017-12-31T10:42:08.756Z,2324.00
2017-12-31T10:43:08.695Z,2324.00
2017-12-31T10:44:08.638Z,2324.00
2017-12-31T10:45:08.581Z,2324.00
2017-12-31T10:46:08.522Z,2324.00
2017-12-31T10:47:08.465Z,2320.00
2017-12-31T10:48:08.407Z,2320.00
2017-12-31T10:49:08.349Z,2316.00
2017-12-31T10:50:08.292Z,2328.00
2017-12-31T10:51:08.239Z,2340.00
2017-12-31T10:52:08.176Z,2352.00
2017-12-31T10:53:08.118Z,2360.00
2017-12-31T10:54:08.060Z,2372.00
2017-12-31T10:55:08.003Z,2352.00
2017-12-31T10:56:07.945Z,2332.00
2017-12-31T10:57:07.887Z,2324.00
2017-12-31T10:58:07.828Z,2312.00
2017-12-31T10:59:07.772Z,2300.00
2017-12-31T11:00:07.714Z,2296.00
2017-12-31T11:01:07.656Z,2296.00
2017-12-31T11:02:07.598Z,2288.00
2017-12-31T11:03:07.533Z,2292.00
2017-12-31T11:04:07.481Z,2288.00
2017-12-31T11:05:07.434Z,2284.00
2017-12-31T11:06:07.369Z,2280.00
2017-12-31T11:07:07.301Z,2284.00
2017-12-31T11:08:07.251Z,2280.00
2017-12-31T11:09:07.249Z,2280.00
2017-12-31T11:10:07.138Z,2280.00
2017-12-31T11:11:07.079Z,2280.00
2017-12-31T11:12:07.021Z,2276.00
2017-12-31T11:13:06.964Z,2280.00
2017-12-31T11:14:06.913Z,2276.00
2017-12-31T11:15:06.846Z,2276.00
2017-12-31T11:16:06.788Z,2276.00
2017-12-31T11:17:06.730Z,2276.00
2017-12-31T11:18:06.675Z,2272.00
2017-12-31T11:19:06.617Z,2276.00
2017-12-31T11:20:06.557Z,2272.00
2017-12-31T11:21:06.501Z,2272.00
2017-12-31T11:22:06.446Z,2276.00
2017-12-31T11:23:06.389Z,2272.00
2017-12-31T11:24:06.327Z,2272.00
2017-12-31T11:25:06.271Z,2272.00
2017-12-31T11:26:06.210Z,2272.00
2017-12-31T11:27:06.156Z,2268.00
2017-12-31T11:28:06.097Z,2264.00
2017-12-31T11:29:06.038Z,2264.00
2017-12-31T11:30:05.981Z,2264.00
2017-12-31T11:31:05.949Z,2264.00
2017-12-31T11:32:05.863Z,2264.00
2017-12-31T11:33:05.805Z,2264.00
2017-12-31T11:34:05.752Z,2260.00
2017-12-31T11:35:05.702Z,2260.00
2017-12-31T11:36:05.633Z,2260.00
2017-12-31T11:37:05.580Z,2256.00
2017-12-31T11:38:05.520Z,2260.00
2017-12-31T11:39:05.464Z,2252.00
2017-12-31T11:40:05.404Z,2248.00
2017-12-31T11:41:05.348Z,2140.00
2017-12-31T11:42:05.289Z,2140.00
2017-12-31T11:43:05.233Z,2240.00
2017-12-31T11:44:05.175Z,2252.00
2017-12-31T11:45:05.123Z,2244.00
2017-12-31T11:46:05.060Z,2236.00
2017-12-31T11:47:05.002Z,2244.00
2017-12-31T11:48:04.944Z,2188.00
2017-12-31T11:49:04.887Z,2200.00
2017-12-31T11:50:04.830Z,2192.00
2017-12-31T11:51:04.773Z,2128.00
2017-12-31T11:52:04.715Z,2112.00
2017-12-31T11:53:04.657Z,2124.00
2017-12-31T11:54:04.600Z,2140.00
2017-12-31T11:55:04.547Z,2128.00
2017-12-31T11:56:04.479Z,2124.00
2017-12-31T11:57:04.429Z,2140.00
2017-12-31T11:58:04.368Z,2136.00
2017-12-31T11:59:04.312Z,2132.00
2017-12-31T12:00:04.254Z,2112.00
2017-12-31T12:01:04.196Z,2096.00
2017-12-31T12:02:04.139Z,2108.00
2017-12-31T12:03:04.081Z,2140.00
2017-12-31T12:04:04.024Z,2072.00
2017-12-31T12:05:03.971Z,2232.00
2017-12-31T12:06:03.907Z,2228.00
2017-12-31T12:07:03.852Z,2224.00
2017-12-31T12:08:03.794Z,2216.00
2017-12-31T12:09:03.737Z,2200.00
2017-12-31T12:10:03.684Z,2196.00
2017-12-31T12:11:03.624Z,2196.00
2017-12-31T12:12:03.561Z,2192.00
2017-12-31T12:13:03.507Z,2192.00
2017-12-31T12:14:03.449Z,2172.00
2017-12-31T12:15:03.393Z,2192.00
2017-12-31T12:16:03.334Z,2192.00
2017-12-31T12:17:03.276Z,2188.00
2017-12-31T12:18:03.220Z,2180.00
2017-12-31T12:19:03.162Z,2176.00
2017-12-31T12:20:03.105Z,2160.00
2017-12-31T12:21:03.047Z,2156.00
2017-12-31T12:22:02.990Z,2156.00
2017-12-31T12:23:02.933Z,2164.00
2017-12-31T12:24:02.873Z,2100.00
2017-12-31T12:25:02.815Z,2064.00
2017-12-31T12:26:02.759Z,2132.00
2017-12-31T12:27:02.704Z,2088.00
2017-12-31T12:28:02.644Z,2088.00
2017-12-31T12:29:02.587Z,2100.00
2017-12-31T12:30:02.529Z,2088.00
2017-12-31T12:31:02.476Z,2108.00
2017-12-31T12:32:02.416Z,2040.00
2017-12-31T12:33:02.357Z,2040.00
2017-12-31T12:34:02.305Z,2040.00
2017-12-31T12:35:02.242Z,2048.00
2017-12-31T12:36:02.186Z,2084.00
2017-12-31T12:37:02.126Z,2108.00
2017-12-31T12:38:02.078Z,2120.00
2017-12-31T12:39:02.017Z,2136.00
2017-12-31T12:40:01.958Z,2120.00
2017-12-31T12:41:01.897Z,2096.00
2017-12-31T12:42:01.840Z,2080.00
2017-12-31T12:43:01.782Z,2080.00
2017-12-31T12:44:01.730Z,2068.00
2017-12-31T12:45:01.668Z,2060.00